Time;durP1;ratioP1;P1;durP2;ratioP2;P2;SDS_P1;SDS_P2;PMS_P1;PMS_P2;Temp;Humidity;BMP_temperature;BMP_pressure;BME280_temperature;BME280_humidity;BME280_pressure;Samples;Min_cycle;Max_cycle;Signal;HPM_P1;HPM_P2
2021/03/30 00:01:09;;;;;;;1.40;1.30;;;20.30;59.90;;;;;;5069874;28;20547;-37
2021/03/30 00:03:35;;;;;;;1.30;1.20;;;20.30;60.10;;;;;;5069121;28;20479;-37
2021/03/30 00:06:00;;;;;;;1.13;1.00;;;20.30;60.30;;;;;;5067472;28;20527;-36
2021/03/30 00:08:26;;;;;;;1.00;1.00;;;20.30;60.30;;;;;;5067398;28;20134;-37
2021/03/30 00:10:52;;;;;;;1.40;1.30;;;20.30;60.30;;;;;;5067515;28;20032;-35
2021/03/30 00:13:17;;;;;;;1.50;1.40;;;20.20;60.20;;;;;;5068441;28;20029;-35
2021/03/30 00:15:43;;;;;;;1.27;1.25;;;20.30;60.30;;;;;;5070214;28;20055;-37
2021/03/30 00:18:08;;;;;;;1.00;1.00;;;20.30;60.20;;;;;;5067159;28;20040;-37
2021/03/30 00:20:34;;;;;;;1.20;1.10;;;20.30;60.10;;;;;;5067327;28;20029;-42
2021/03/30 00:23:00;;;;;;;1.10;1.08;;;20.30;60.20;;;;;;5066821;28;20021;-36
2021/03/30 00:25:25;;;;;;;1.33;1.23;;;20.30;60.10;;;;;;5068996;28;20025;-34
2021/03/30 00:27:51;;;;;;;1.05;1.05;;;20.30;60.20;;;;;;5074357;28;20051;-37
2021/03/30 00:30:17;;;;;;;1.00;1.00;;;20.30;60.30;;;;;;5070777;28;20105;-38
2021/03/30 00:32:43;;;;;;;1.35;1.25;;;20.30;60.30;;;;;;5070393;28;20489;-35
2021/03/30 00:35:09;;;;;;;0.95;0.90;;;20.30;60.20;;;;;;5070560;28;20021;-37
2021/03/30 00:37:35;;;;;;;1.05;1.05;;;20.30;60.20;;;;;;5071079;28;20104;-36
2021/03/30 00:40:03;;;;;;;1.20;1.20;;;20.30;60.20;;;;;;5072227;28;20457;-37
2021/03/30 00:42:28;;;;;;;1.50;1.40;;;20.30;60.10;;;;;;5073558;28;20027;-37
2021/03/30 00:44:56;;;;;;;1.35;1.25;;;20.30;60.10;;;;;;5070528;28;20402;-35
2021/03/30 00:47:21;;;;;;;1.23;1.13;;;20.30;60.10;;;;;;5088888;28;20033;-44
2021/03/30 00:49:49;;;;;;;1.20;1.20;;;20.30;60.10;;;;;;5089111;28;20390;-36
2021/03/30 00:52:15;;;;;;;1.30;1.20;;;20.30;60.10;;;;;;5072014;28;20405;-36
2021/03/30 00:54:41;;;;;;;1.27;1.17;;;20.30;60.30;;;;;;5057722;28;20556;-36
2021/03/30 00:57:07;;;;;;;1.50;1.40;;;20.20;60.30;;;;;;5057783;28;20059;-35
2021/03/30 00:59:32;;;;;;;1.45;1.13;;;20.20;61.20;;;;;;5065095;28;20066;-37
2021/03/30 01:01:58;;;;;;;1.30;1.20;;;20.20;60.30;;;;;;5069518;28;20020;-35
2021/03/30 01:04:24;;;;;;;1.40;1.30;;;20.20;60.20;;;;;;5070365;28;20032;-37
2021/03/30 01:06:49;;;;;;;1.35;1.25;;;20.20;60.20;;;;;;5073911;28;20039;-37
2021/03/30 01:09:36;;;;;;;1.00;1.00;;;20.20;60.30;;;;;;5071590;28;20108;-37
2021/03/30 01:12:26;;;;;;;1.17;1.17;;;20.20;60.30;;;;;;5069974;28;20063;-37
2021/03/30 01:15:05;;;;;;;1.20;1.10;;;20.20;60.30;;;;;;5069760;28;20513;-40
2021/03/30 01:17:38;;;;;;;2.05;0.90;;;20.20;60.40;;;;;;5071546;28;20033;-37
2021/03/30 01:20:41;;;;;;;1.10;1.10;;;20.20;60.30;;;;;;5069837;28;20444;-36
2021/03/30 01:23:26;;;;;;;1.00;1.00;;;20.30;60.30;;;;;;5069687;28;20100;-37
2021/03/30 01:26:02;;;;;;;;;;;20.30;60.30;;;;;;5071122;28;20488;-38
2021/03/30 01:28:33;;;;;;;1.30;1.10;;;20.30;60.30;;;;;;5055347;28;19908;-37
2021/03/30 01:30:58;;;;;;;1.83;1.00;;;20.20;60.20;;;;;;5070892;28;20021;-38
2021/03/30 01:33:26;;;;;;;1.10;1.10;;;20.20;60.30;;;;;;5048061;28;20070;-37
2021/03/30 01:35:52;;;;;;;2.13;1.10;;;20.20;60.40;;;;;;5070357;28;20548;-38
2021/03/30 01:38:18;;;;;;;1.05;0.98;;;20.20;60.30;;;;;;5070942;28;20036;-38
2021/03/30 01:40:44;;;;;;;1.10;1.00;;;20.20;60.50;;;;;;5086382;28;20033;-41
2021/03/30 01:43:10;;;;;;;1.10;1.10;;;20.20;60.60;;;;;;5062692;28;20048;-38
2021/03/30 01:45:36;;;;;;;1.00;1.00;;;20.20;60.50;;;;;;5068461;28;20029;-41
2021/03/30 01:48:01;;;;;;;1.02;1.02;;;20.30;60.30;;;;;;5084225;28;20036;-39
2021/03/30 01:50:27;;;;;;;0.90;0.90;;;20.30;60.20;;;;;;5067716;28;20452;-38
2021/03/30 01:52:53;;;;;;;1.00;1.00;;;20.30;60.90;;;;;;5069976;28;20020;-36
2021/03/30 01:55:18;;;;;;;1.05;1.05;;;20.40;60.20;;;;;;5069597;28;20078;-37
2021/03/30 01:57:50;;;;;;;0.98;0.98;;;20.40;60.00;;;;;;5070863;28;20020;-35
2021/03/30 02:00:16;;;;;;;1.08;1.08;;;20.40;59.90;;;;;;5067311;28;20036;-38
2021/03/30 02:02:42;;;;;;;1.02;1.02;;;20.40;59.90;;;;;;5069623;28;20020;-38
2021/03/30 02:05:08;;;;;;;0.90;0.90;;;20.40;59.90;;;;;;5069388;28;20414;-37
2021/03/30 02:07:34;;;;;;;0.80;0.80;;;20.40;59.90;;;;;;5069082;28;20389;-34
2021/03/30 02:10:04;;;;;;;0.98;0.98;;;20.40;59.70;;;;;;5069924;28;20021;-37
2021/03/30 02:12:35;;;;;;;0.98;0.98;;;20.40;59.80;;;;;;5050531;28;20020;-37
2021/03/30 02:15:00;;;;;;;2.22;1.10;;;20.40;59.80;;;;;;5069138;28;20033;-35
2021/03/30 02:17:38;;;;;;;1.25;1.15;;;20.40;59.80;;;;;;5069262;28;20036;-37
2021/03/30 02:20:03;;;;;;;0.75;0.75;;;20.30;59.80;;;;;;5068757;28;20063;-38
2021/03/30 02:22:42;;;;;;;1.27;1.17;;;20.30;59.90;;;;;;5068793;28;20398;-36
2021/03/30 02:25:08;;;;;;;0.90;0.90;;;20.20;60.00;;;;;;5067055;28;20016;-37
2021/03/30 02:27:36;;;;;;;1.30;1.13;;;20.20;60.00;;;;;;5079776;28;20387;-37
2021/03/30 02:30:03;;;;;;;0.90;0.90;;;20.20;60.00;;;;;;5068962;28;20024;-38
2021/03/30 02:32:28;;;;;;;1.45;1.30;;;20.20;59.90;;;;;;5068424;28;20020;-37
2021/03/30 02:34:55;;;;;;;0.80;0.80;;;20.30;60.00;;;;;;5068660;28;20023;-37
2021/03/30 02:37:20;;;;;;;1.20;1.17;;;20.20;60.10;;;;;;5067250;28;20059;-34
2021/03/30 02:39:46;;;;;;;1.92;1.30;;;20.20;60.00;;;;;;5070135;28;20487;-38
2021/03/30 02:42:12;;;;;;;1.30;1.20;;;20.20;59.90;;;;;;5060300;28;20020;-38
2021/03/30 02:44:39;;;;;;;0.80;0.80;;;20.20;59.80;;;;;;5052308;28;20035;-37
2021/03/30 02:47:04;;;;;;;0.90;0.90;;;20.20;59.90;;;;;;5055591;28;20044;-38
2021/03/30 02:49:30;;;;;;;0.90;0.90;;;20.20;60.00;;;;;;5050552;28;20122;-36
2021/03/30 02:51:57;;;;;;;1.00;1.00;;;20.20;59.60;;;;;;5069542;28;20029;-41
2021/03/30 02:54:23;;;;;;;1.33;1.20;;;20.20;59.50;;;;;;5069420;28;20096;-38
2021/03/30 02:56:48;;;;;;;6.18;1.10;;;20.10;59.60;;;;;;5051204;28;20128;-36
2021/03/30 02:59:14;;;;;;;1.20;1.10;;;20.00;60.40;;;;;;5067411;28;20107;-37
2021/03/30 03:01:40;;;;;;;1.38;1.27;;;20.00;60.60;;;;;;5092977;28;20036;-36
2021/03/30 03:04:05;;;;;;;1.00;1.00;;;20.00;61.10;;;;;;5068313;28;20025;-37
2021/03/30 03:06:31;;;;;;;1.17;1.08;;;20.00;61.20;;;;;;5068008;28;20029;-38
2021/03/30 03:08:57;;;;;;;1.10;1.00;;;19.90;61.30;;;;;;5068584;28;20037;-35
2021/03/30 03:11:23;;;;;;;0.85;0.85;;;19.90;61.40;;;;;;5051053;28;20078;-37
2021/03/30 03:13:50;;;;;;;1.20;1.10;;;19.90;61.50;;;;;;5068612;28;20020;-36
2021/03/30 03:16:16;;;;;;;0.90;0.90;;;19.90;61.40;;;;;;5067194;28;20048;-36
2021/03/30 03:18:42;;;;;;;1.30;1.20;;;20.00;61.30;;;;;;5052493;28;20093;-38
2021/03/30 03:21:09;;;;;;;1.65;1.10;;;20.00;61.30;;;;;;5047947;28;20449;-37
2021/03/30 03:23:37;;;;;;;1.05;0.95;;;20.00;61.30;;;;;;5069499;28;20508;-37
2021/03/30 03:26:03;;;;;;;1.30;1.20;;;20.00;61.30;;;;;;5069185;28;20032;-36
2021/03/30 03:28:28;;;;;;;1.00;1.00;;;20.00;61.40;;;;;;5067241;28;20453;-37
2021/03/30 03:30:54;;;;;;;1.30;1.20;;;20.00;61.20;;;;;;5070911;28;20025;-37
2021/03/30 03:33:19;;;;;;;1.42;1.08;;;20.00;61.20;;;;;;5069276;28;20027;-37
2021/03/30 03:36:08;;;;;;;1.00;1.00;;;20.00;61.30;;;;;;5069317;28;20037;-36
2021/03/30 03:38:33;;;;;;;1.00;1.00;;;20.00;61.30;;;;;;5067590;28;20020;-36
2021/03/30 03:40:59;;;;;;;0.82;0.82;;;20.10;61.10;;;;;;5069670;28;20025;-37
2021/03/30 03:43:25;;;;;;;0.88;0.88;;;20.10;61.00;;;;;;5067237;28;20028;-37
2021/03/30 03:45:50;;;;;;;0.70;0.70;;;20.20;60.80;;;;;;5067526;28;20043;-36
2021/03/30 03:48:16;;;;;;;1.10;1.10;;;20.20;60.70;;;;;;5067090;28;20524;-37
2021/03/30 03:50:42;;;;;;;2.40;1.13;;;20.20;60.40;;;;;;5066034;28;20037;-38
2021/03/30 03:53:07;;;;;;;0.90;0.90;;;20.20;60.30;;;;;;5050904;28;20498;-37
2021/03/30 03:55:33;;;;;;;1.10;1.10;;;20.20;60.30;;;;;;5050575;28;20410;-37
2021/03/30 03:58:03;;;;;;;0.90;0.90;;;20.30;60.30;;;;;;5069937;28;20096;-37
2021/03/30 04:00:28;;;;;;;1.25;1.08;;;20.30;60.30;;;;;;5071243;28;20103;-37
2021/03/30 04:03:01;;;;;;;0.93;0.93;;;20.30;60.30;;;;;;5072411;28;20420;-38
2021/03/30 04:05:34;;;;;;;0.90;0.90;;;20.20;60.30;;;;;;5069325;28;20584;-37
2021/03/30 04:08:03;;;;;;;1.25;1.15;;;20.30;60.50;;;;;;5073264;28;20024;-38
2021/03/30 04:10:29;;;;;;;1.25;1.20;;;20.20;60.40;;;;;;5083234;28;20055;-38
2021/03/30 04:12:54;;;;;;;0.90;0.90;;;20.20;60.30;;;;;;5071121;28;20541;-40
2021/03/30 04:15:21;;;;;;;1.02;0.93;;;20.20;60.60;;;;;;5072044;28;20037;-36
2021/03/30 04:17:48;;;;;;;0.82;0.82;;;20.20;60.50;;;;;;5070014;28;20020;-36
2021/03/30 04:20:15;;;;;;;1.58;1.13;;;20.20;60.70;;;;;;5071714;28;20063;-38
2021/03/30 04:22:48;;;;;;;0.93;0.93;;;20.10;60.70;;;;;;5071399;28;20012;-37
2021/03/30 04:25:13;;;;;;;1.77;1.30;;;20.10;60.80;;;;;;5071950;28;21132;-36
2021/03/30 04:27:39;;;;;;;1.10;1.10;;;20.20;60.90;;;;;;5073692;28;20090;-38
2021/03/30 04:30:05;;;;;;;1.02;0.90;;;20.10;60.80;;;;;;5072247;28;20604;-38
2021/03/30 04:32:31;;;;;;;0.90;0.90;;;20.10;60.80;;;;;;5071021;28;20398;-34
2021/03/30 04:34:56;;;;;;;1.15;1.05;;;20.10;60.80;;;;;;5072038;28;20025;-37
2021/03/30 04:37:22;;;;;;;1.42;1.33;;;20.10;60.80;;;;;;5070230;28;20482;-34
2021/03/30 04:39:47;;;;;;;1.00;1.00;;;20.10;60.70;;;;;;5073735;28;20082;-37
2021/03/30 04:42:13;;;;;;;1.00;1.00;;;20.20;60.50;;;;;;5066317;28;20025;-37
2021/03/30 04:44:38;;;;;;;2.20;1.05;;;20.20;60.70;;;;;;5066935;28;20533;-36
2021/03/30 04:47:04;;;;;;;1.35;1.02;;;20.10;62.70;;;;;;5059828;28;20036;-35
2021/03/30 04:49:30;;;;;;;1.88;1.23;;;20.00;63.10;;;;;;5068459;28;20445;-37
2021/03/30 04:51:55;;;;;;;1.05;0.95;;;20.00;61.90;;;;;;5071239;28;20474;-37
2021/03/30 04:54:22;;;;;;;1.20;1.10;;;20.10;62.30;;;;;;5066647;28;20052;-37
2021/03/30 04:56:47;;;;;;;11.75;1.55;;;20.10;61.90;;;;;;5064373;28;20486;-37
2021/03/30 04:59:13;;;;;;;2.97;1.40;;;20.00;62.00;;;;;;5063418;28;20031;-37
2021/03/30 05:01:39;;;;;;;2.45;1.48;;;19.90;62.80;;;;;;5065407;28;20032;-37
2021/03/30 05:04:05;;;;;;;4.47;1.30;;;19.90;63.00;;;;;;5067506;28;20449;-36
2021/03/30 05:06:30;;;;;;;5.38;1.48;;;19.80;62.70;;;;;;5070938;28;20028;-37
2021/03/30 05:08:56;;;;;;;2.20;0.90;;;19.90;62.50;;;;;;5065021;28;20108;-36
2021/03/30 05:11:22;;;;;;;3.55;1.20;;;19.90;62.10;;;;;;5068591;28;20055;-37
2021/03/30 05:13:48;;;;;;;3.42;1.40;;;19.90;62.00;;;;;;5071141;28;20020;-36
2021/03/30 05:16:13;;;;;;;1.35;1.20;;;19.80;61.60;;;;;;5070423;28;20135;-37
2021/03/30 05:18:39;;;;;;;2.63;1.13;;;19.80;62.30;;;;;;5065685;28;20025;-36
2021/03/30 05:21:05;;;;;;;2.35;1.10;;;19.80;62.70;;;;;;5068293;28;20097;-37
2021/03/30 05:23:30;;;;;;;1.20;1.10;;;19.80;61.90;;;;;;5067996;28;20024;-38
2021/03/30 05:25:56;;;;;;;1.48;0.93;;;20.00;61.60;;;;;;5066350;28;20077;-37
2021/03/30 05:28:21;;;;;;;1.08;0.90;;;20.00;60.90;;;;;;5066664;28;20745;-38
2021/03/30 05:30:47;;;;;;;1.00;1.00;;;20.00;62.10;;;;;;5067905;28;20032;-38
2021/03/30 05:33:13;;;;;;;2.45;1.20;;;20.00;61.60;;;;;;5070671;28;20036;-36
2021/03/30 05:35:39;;;;;;;3.25;1.50;;;19.90;61.50;;;;;;5069723;28;20035;-37
2021/03/30 05:38:04;;;;;;;2.55;1.05;;;19.90;62.00;;;;;;5065803;28;20101;-38
2021/03/30 05:40:30;;;;;;;1.20;1.10;;;19.90;61.40;;;;;;5066756;28;20043;-37
2021/03/30 05:42:55;;;;;;;0.80;0.80;;;19.90;61.70;;;;;;5070195;28;20016;-38
2021/03/30 05:45:21;;;;;;;3.08;1.63;;;20.00;61.70;;;;;;5067360;28;20031;-37
2021/03/30 05:47:50;;;;;;;2.00;1.42;;;20.00;61.00;;;;;;5067377;28;20040;-37
2021/03/30 05:50:18;;;;;;;1.60;1.13;;;20.00;60.90;;;;;;5070015;28;20397;-37
2021/03/30 05:53:03;;;;;;;2.15;1.42;;;20.00;61.20;;;;;;5068202;28;20132;-37
2021/03/30 05:55:29;;;;;;;1.35;1.10;;;20.00;61.30;;;;;;5054093;28;20180;-37
2021/03/30 05:57:57;;;;;;;1.40;1.20;;;20.00;61.20;;;;;;5072110;28;20025;-37
2021/03/30 06:00:25;;;;;;;1.50;1.20;;;20.00;61.10;;;;;;5068633;28;20025;-36
2021/03/30 06:02:56;;;;;;;1.65;1.55;;;20.10;61.00;;;;;;5069370;28;20043;-38
2021/03/30 06:05:22;;;;;;;0.98;0.98;;;20.10;59.90;;;;;;5068336;28;20025;-37
2021/03/30 06:07:47;;;;;;;2.38;1.20;;;20.00;60.20;;;;;;5066941;28;20406;-41
2021/03/30 06:10:17;;;;;;;0.95;0.95;;;19.90;60.80;;;;;;5070211;28;20028;-38
2021/03/30 06:12:43;;;;;;;1.42;1.10;;;20.00;60.70;;;;;;5069857;28;20114;-36
2021/03/30 06:15:10;;;;;;;0.95;0.95;;;20.00;60.40;;;;;;5069538;28;20090;-37
2021/03/30 06:17:49;;;;;;;1.40;1.30;;;20.10;60.20;;;;;;5068243;28;20032;-35
2021/03/30 06:20:35;;;;;;;1.20;1.10;;;20.10;60.20;;;;;;5068432;28;20032;-38
2021/03/30 06:23:05;;;;;;;2.45;1.02;;;20.20;59.90;;;;;;5065982;28;20048;-36
2021/03/30 06:25:38;;;;;;;1.58;1.00;;;20.10;59.90;;;;;;5067502;28;20102;-36
2021/03/30 06:28:32;;;;;;;1.50;0.90;;;20.10;60.00;;;;;;5070548;28;20040;-36
2021/03/30 06:31:10;;;;;;;1.52;0.90;;;20.10;60.00;;;;;;5067257;28;20822;-38
2021/03/30 06:33:57;;;;;;;1.45;1.00;;;20.10;60.00;;;;;;5069814;28;20111;-36
2021/03/30 06:36:26;;;;;;;2.05;1.13;;;20.00;60.30;;;;;;5069172;28;20037;-39
2021/03/30 06:39:04;;;;;;;1.10;1.00;;;20.00;60.00;;;;;;5068562;28;20016;-37
2021/03/30 06:41:57;;;;;;;1.00;0.90;;;20.00;59.90;;;;;;5067552;28;20027;-36
2021/03/30 06:44:29;;;;;;;2.20;1.00;;;20.00;60.00;;;;;;5067077;28;20021;-34
2021/03/30 06:47:05;;;;;;;0.85;0.85;;;20.00;59.40;;;;;;5068138;28;20476;-37
2021/03/30 06:49:32;;;;;;;0.90;0.90;;;20.00;59.80;;;;;;5052437;28;20039;-37
2021/03/30 06:51:58;;;;;;;1.40;1.30;;;20.00;59.70;;;;;;5070023;28;20020;-38
2021/03/30 06:54:24;;;;;;;1.70;0.90;;;19.90;59.60;;;;;;5068964;28;20032;-36
2021/03/30 06:56:55;;;;;;;0.98;0.90;;;19.90;59.80;;;;;;5085122;28;20040;-36
2021/03/30 06:59:21;;;;;;;1.77;1.10;;;20.00;59.80;;;;;;5067949;28;20028;-36
2021/03/30 07:01:53;;;;;;;2.28;1.23;;;20.00;60.10;;;;;;5066976;28;20402;-38
2021/03/30 07:04:18;;;;;;;1.55;1.45;;;19.90;62.50;;;;;;5066515;28;20024;-39
2021/03/30 07:06:54;;;;;;;2.10;1.33;;;19.90;62.00;;;;;;5067821;28;20044;-41
2021/03/30 07:09:20;;;;;;;4.43;1.55;;;19.90;62.70;;;;;;5068300;28;20040;-36
2021/03/30 07:11:46;;;;;;;2.78;1.90;;;19.80;62.30;;;;;;5067297;28;20028;-38
2021/03/30 07:14:12;;;;;;;1.90;1.80;;;19.70;60.80;;;;;;5067437;28;20548;-37
2021/03/30 07:16:51;;;;;;;2.58;2.38;;;19.70;57.60;;;;;;5066895;28;20040;-36
2021/03/30 07:19:24;;;;;;;2.88;2.67;;;19.50;55.60;;;;;;5067829;28;20028;-36
2021/03/30 07:22:02;;;;;;;5.13;2.50;;;19.40;54.90;;;;;;5065898;28;20056;-36
2021/03/30 07:24:32;;;;;;;2.85;2.53;;;19.20;55.00;;;;;;5070862;28;20028;-35
2021/03/30 07:27:05;;;;;;;2.67;2.47;;;19.10;55.00;;;;;;5086291;28;20036;-37
2021/03/30 07:29:40;;;;;;;2.40;2.30;;;19.00;55.10;;;;;;5069190;28;20398;-37
2021/03/30 07:32:06;;;;;;;5.57;2.60;;;19.00;54.80;;;;;;5068866;28;20286;-36
2021/03/30 07:34:52;;;;;;;3.03;2.42;;;19.10;54.60;;;;;;5069576;28;20100;-39
2021/03/30 07:37:29;;;;;;;2.53;2.33;;;19.20;54.00;;;;;;5072785;28;20041;-36
2021/03/30 07:39:55;;;;;;;2.58;2.15;;;19.30;54.00;;;;;;5071451;28;20020;-37
2021/03/30 07:42:21;;;;;;;2.33;1.92;;;19.30;54.20;;;;;;5073820;28;20067;-37
2021/03/30 07:44:48;;;;;;;2.90;2.35;;;19.40;54.60;;;;;;5071484;28;20025;-37
2021/03/30 07:47:13;;;;;;;3.65;2.30;;;19.50;55.00;;;;;;5072705;28;20040;-37
2021/03/30 07:49:45;;;;;;;3.92;1.85;;;19.60;55.20;;;;;;5073006;28;20397;-37
2021/03/30 07:52:20;;;;;;;2.00;1.83;;;19.70;55.10;;;;;;5073250;28;20075;-35
2021/03/30 07:55:23;;;;;;;2.28;1.80;;;19.80;55.20;;;;;;5074626;28;20032;-37
2021/03/30 07:57:55;;;;;;;2.25;1.77;;;19.80;55.10;;;;;;5074948;28;20028;-39
2021/03/30 08:00:32;;;;;;;4.45;2.25;;;19.90;55.50;;;;;;5073221;28;20106;-36
2021/03/30 08:03:03;;;;;;;1.63;1.52;;;20.00;55.20;;;;;;5070981;28;20110;-37
2021/03/30 08:05:28;;;;;;;2.63;1.73;;;20.20;54.80;;;;;;5071170;28;20031;-36
2021/03/30 08:07:55;;;;;;;1.92;1.83;;;20.40;54.50;;;;;;5071075;28;20040;-38
2021/03/30 08:10:36;;;;;;;1.80;1.52;;;20.70;53.80;;;;;;5071727;28;20070;-36
2021/03/30 08:13:20;;;;;;;1.70;1.60;;;20.90;53.60;;;;;;5103013;28;20035;-34
2021/03/30 08:15:47;;;;;;;;;;;21.00;53.20;;;;;;5074333;28;20533;-35
2021/03/30 08:18:12;;;;;;;1.73;1.63;;;20.70;53.70;;;;;;5071027;28;19916;-37
2021/03/30 08:20:55;;;;;;;2.13;1.60;;;20.60;54.30;;;;;;5089244;28;20025;-35
2021/03/30 08:23:21;;;;;;;1.73;1.55;;;20.50;54.70;;;;;;5070445;28;20032;-37
2021/03/30 08:25:49;;;;;;;2.00;1.63;;;20.30;55.50;;;;;;5072130;28;20017;-35
2021/03/30 08:28:49;;;;;;;2.55;1.70;;;20.10;55.80;;;;;;5070137;28;20235;-37
2021/03/30 08:31:16;;;;;;;1.50;1.40;;;20.20;55.90;;;;;;5067762;28;20817;-40
2021/03/30 08:33:41;;;;;;;2.97;1.60;;;20.10;55.60;;;;;;5098267;28;20025;-37
2021/03/30 08:36:23;;;;;;;1.90;1.70;;;20.00;56.50;;;;;;5070706;28;20036;-37
2021/03/30 08:38:50;;;;;;;2.55;1.70;;;19.90;56.90;;;;;;5069208;28;20032;-37
2021/03/30 08:41:45;;;;;;;2.58;1.77;;;19.90;56.80;;;;;;5071247;28;20024;-37
2021/03/30 08:44:28;;;;;;;1.70;1.60;;;19.90;56.80;;;;;;5070421;28;20025;-37
2021/03/30 08:46:56;;;;;;;2.78;1.50;;;19.90;57.20;;;;;;5069309;28;20040;-37
2021/03/30 08:49:39;;;;;;;2.08;1.70;;;19.90;56.60;;;;;;5070654;28;20479;-36
2021/03/30 08:52:10;;;;;;;1.45;1.35;;;19.90;57.30;;;;;;5070519;28;20131;-36
2021/03/30 08:54:52;;;;;;;1.52;1.40;;;19.90;57.40;;;;;;5074259;28;20032;-36
2021/03/30 08:57:22;;;;;;;1.90;1.80;;;19.90;57.40;;;;;;5099949;28;20028;-36
2021/03/30 08:59:48;;;;;;;1.90;1.80;;;19.90;56.80;;;;;;5067698;28;20403;-36
2021/03/30 09:02:14;;;;;;;1.60;1.50;;;19.90;56.60;;;;;;5069245;28;20051;-37
2021/03/30 09:04:43;;;;;;;2.10;1.98;;;20.00;56.80;;;;;;5070400;28;20029;-37
2021/03/30 09:07:09;;;;;;;1.63;1.52;;;20.00;56.90;;;;;;5070850;28;20029;-36
2021/03/30 09:09:37;;;;;;;2.25;1.45;;;20.00;56.90;;;;;;5071864;28;20036;-36
2021/03/30 09:12:18;;;;;;;1.48;1.38;;;20.00;56.80;;;;;;5069831;28;20020;-36
2021/03/30 09:14:45;;;;;;;2.53;1.30;;;20.10;57.10;;;;;;5069319;28;20036;-36
2021/03/30 09:17:11;;;;;;;2.60;1.35;;;20.10;57.30;;;;;;5072164;28;20231;-37
2021/03/30 09:19:48;;;;;;;1.65;1.15;;;20.20;57.20;;;;;;5069305;28;20074;-36
2021/03/30 09:27:37;;;;;;;1.88;1.40;;;20.30;57.10;;;;;;5071140;28;20051;-36
2021/03/30 09:30:14;;;;;;;1.20;1.13;;;20.30;57.00;;;;;;5070350;28;20497;-37
2021/03/30 09:32:41;;;;;;;1.33;1.30;;;20.40;57.10;;;;;;5070861;28;20024;-37
2021/03/30 09:35:10;;;;;;;1.60;1.50;;;20.40;57.00;;;;;;5070497;28;20478;-36
2021/03/30 09:37:51;;;;;;;2.65;1.60;;;20.40;57.10;;;;;;5066621;28;20036;-37
2021/03/30 09:40:25;;;;;;;1.30;1.20;;;20.40;56.70;;;;;;5064403;28;20051;-37
2021/03/30 09:42:51;;;;;;;1.40;1.30;;;20.40;57.10;;;;;;5068318;28;20063;-36
2021/03/30 09:45:25;;;;;;;1.60;1.50;;;20.40;56.80;;;;;;5103584;28;20399;-35
2021/03/30 09:47:51;;;;;;;1.45;1.35;;;20.40;56.80;;;;;;5059758;28;20044;-36
2021/03/30 09:50:21;;;;;;;1.65;1.55;;;20.40;56.50;;;;;;5048633;28;20766;-37
2021/03/30 09:52:47;;;;;;;1.42;1.33;;;20.50;56.60;;;;;;5067839;28;20118;-37
2021/03/30 09:55:12;;;;;;;1.20;1.15;;;20.60;56.70;;;;;;5069316;28;20056;-36
2021/03/30 09:57:38;;;;;;;1.17;1.13;;;20.80;56.40;;;;;;5065989;28;20071;-36
2021/03/30 10:00:04;;;;;;;1.50;1.40;;;20.90;56.10;;;;;;5067443;28;20130;-36
2021/03/30 10:02:37;;;;;;;1.20;1.10;;;20.90;55.90;;;;;;4943623;28;10000435;-37
2021/03/30 10:05:06;;;;;;;1.95;1.55;;;21.00;55.70;;;;;;5065715;28;20240;-36
2021/03/30 10:07:39;;;;;;;1.30;1.20;;;21.00;55.90;;;;;;5067038;28;20123;-37
2021/03/30 10:10:10;;;;;;;1.52;1.42;;;21.00;55.70;;;;;;5069772;28;20166;-36
2021/03/30 10:12:55;;;;;;;1.20;1.10;;;21.10;55.60;;;;;;5069313;28;20090;-36
2021/03/30 10:15:36;;;;;;;1.10;1.10;;;21.10;55.70;;;;;;5068420;28;20091;-36
2021/03/30 10:18:03;;;;;;;1.13;1.08;;;21.10;55.60;;;;;;5067919;28;20037;-35
2021/03/30 10:20:29;;;;;;;1.10;1.10;;;21.10;55.70;;;;;;5061854;28;20024;-36
2021/03/30 10:22:54;;;;;;;1.25;1.15;;;21.10;55.60;;;;;;5067539;28;20089;-35
2021/03/30 10:25:30;;;;;;;2.03;1.40;;;21.20;55.60;;;;;;5068390;28;20032;-36
2021/03/30 10:28:00;;;;;;;1.27;1.17;;;21.20;55.90;;;;;;5067131;28;20459;-36
2021/03/30 10:31:02;;;;;;;1.23;1.13;;;21.20;55.90;;;;;;5069241;28;20017;-35
2021/03/30 10:33:42;;;;;;;2.35;1.20;;;21.20;56.00;;;;;;5063448;28;20036;-38
2021/03/30 10:36:09;;;;;;;2.55;1.10;;;21.30;55.80;;;;;;5068017;28;20090;-36
2021/03/30 10:38:38;;;;;;;1.40;1.30;;;21.30;55.80;;;;;;5060879;28;20048;-36
2021/03/30 10:41:09;;;;;;;1.15;1.13;;;21.20;55.90;;;;;;5064394;28;20032;-36
2021/03/30 10:43:35;;;;;;;1.45;1.35;;;21.30;55.90;;;;;;5066269;28;20072;-37
2021/03/30 10:46:01;;;;;;;2.15;1.33;;;21.30;55.90;;;;;;5067301;28;20082;-36
2021/03/30 10:48:26;;;;;;;1.58;1.48;;;21.30;56.50;;;;;;5063538;28;20036;-38
2021/03/30 10:50:53;;;;;;;3.63;1.58;;;21.40;55.80;;;;;;5063240;28;20086;-37
2021/03/30 10:53:19;;;;;;;2.33;1.67;;;21.40;55.80;;;;;;5062222;28;20037;-37
2021/03/30 10:55:45;;;;;;;1.65;1.55;;;21.40;55.70;;;;;;5063281;28;20082;-38
2021/03/30 10:58:13;;;;;;;1.73;1.33;;;21.30;56.10;;;;;;5063460;28;20037;-37
2021/03/30 11:00:39;;;;;;;2.03;1.67;;;21.40;56.00;;;;;;5067488;28;20095;-38
2021/03/30 11:03:05;;;;;;;1.52;1.42;;;21.40;55.80;;;;;;5062016;28;20144;-36
2021/03/30 11:05:31;;;;;;;1.88;1.77;;;21.40;55.80;;;;;;5065300;28;20024;-36
2021/03/30 11:07:56;;;;;;;3.65;2.00;;;21.30;55.90;;;;;;5064744;28;20422;-33
2021/03/30 11:10:24;;;;;;;1.60;1.50;;;21.40;56.20;;;;;;5064005;28;20042;-34
2021/03/30 11:12:49;;;;;;;3.22;1.60;;;21.40;56.00;;;;;;5066591;28;20402;-35
2021/03/30 11:15:15;;;;;;;1.85;1.75;;;21.40;55.90;;;;;;5063478;28;20498;-40
2021/03/30 11:17:40;;;;;;;1.63;1.52;;;21.50;56.10;;;;;;5064297;28;20055;-38
2021/03/30 11:20:08;;;;;;;2.55;1.48;;;21.50;55.80;;;;;;5061913;28;20026;-37
2021/03/30 11:22:34;;;;;;;1.80;1.42;;;21.50;56.10;;;;;;5057518;28;20415;-38
2021/03/30 11:25:02;;;;;;;2.45;1.92;;;21.50;55.90;;;;;;5064246;28;20025;-35
2021/03/30 11:27:31;;;;;;;2.10;1.90;;;21.60;55.70;;;;;;5063301;28;20094;-36
2021/03/30 11:33:04;;;;;;;2.13;1.85;;;21.70;55.10;;;;;;5066213;28;20097;-37
2021/03/30 11:38:34;;;;;;;3.58;1.95;;;21.90;54.80;;;;;;5043540;28;20510;-37
2021/03/30 11:40:59;;;;;;;1.98;1.88;;;21.90;54.60;;;;;;5044668;28;20569;-37
2021/03/30 11:43:25;;;;;;;2.38;1.85;;;21.90;54.40;;;;;;5045409;28;20052;-37
2021/03/30 11:45:50;;;;;;;2.00;1.90;;;22.00;54.40;;;;;;5045545;28;20082;-37
2021/03/30 11:48:16;;;;;;;2.08;1.67;;;21.90;54.60;;;;;;5044340;28;20043;-37
2021/03/30 11:50:42;;;;;;;3.78;2.08;;;22.00;54.30;;;;;;5045290;28;20033;-37
2021/03/30 11:53:07;;;;;;;2.28;2.17;;;21.90;54.20;;;;;;5044790;28;20040;-37
2021/03/30 11:55:33;;;;;;;2.60;2.13;;;21.90;54.00;;;;;;5043798;28;20067;-36
2021/03/30 11:57:59;;;;;;;2.88;2.65;;;21.90;54.20;;;;;;5045515;28;20062;-37
2021/03/30 12:00:24;;;;;;;13.45;4.95;;;22.00;53.30;;;;;;5046035;28;20033;-37
2021/03/30 12:02:50;;;;;;;13.48;5.25;;;22.10;52.70;;;;;;5046116;28;20044;-37
2021/03/30 12:05:18;;;;;;;15.68;5.78;;;22.20;52.60;;;;;;5045959;28;20025;-36
2021/03/30 12:07:44;;;;;;;10.38;4.93;;;22.30;52.00;;;;;;5045541;28;20041;-32
2021/03/30 12:10:10;;;;;;;11.43;4.47;;;22.30;52.20;;;;;;5064733;28;20478;-35
2021/03/30 12:12:36;;;;;;;6.07;3.55;;;22.40;51.80;;;;;;5069460;28;20074;-35
2021/03/30 12:15:02;;;;;;;7.00;4.22;;;22.40;52.00;;;;;;5067583;28;20040;-34
2021/03/30 12:17:28;;;;;;;7.07;3.92;;;22.40;51.60;;;;;;5067693;28;20117;-37
2021/03/30 12:19:54;;;;;;;11.88;3.95;;;22.40;51.30;;;;;;5068697;28;20485;-34
2021/03/30 12:22:19;;;;;;;12.15;3.30;;;22.50;51.30;;;;;;5068348;28;20039;-37
2021/03/30 12:24:45;;;;;;;6.43;3.15;;;22.50;51.40;;;;;;5071493;28;20074;-45
2021/03/30 12:27:11;;;;;;;4.43;2.65;;;22.60;51.70;;;;;;5069830;28;20409;-36
2021/03/30 12:29:38;;;;;;;6.25;2.72;;;22.50;52.00;;;;;;5070970;28;20074;-35
2021/03/30 12:32:04;;;;;;;4.97;2.90;;;22.50;52.50;;;;;;5071322;28;20032;-45
2021/03/30 12:34:29;;;;;;;5.70;3.10;;;22.40;52.30;;;;;;5071010;28;20021;-36
2021/03/30 12:36:55;;;;;;;3.03;2.78;;;22.30;52.80;;;;;;5070324;28;20147;-36
2021/03/30 12:39:21;;;;;;;4.70;3.10;;;22.30;52.80;;;;;;5071254;28;20075;-37
2021/03/30 12:41:46;;;;;;;8.43;2.70;;;22.30;53.10;;;;;;5071032;28;20558;-39
2021/03/30 12:44:12;;;;;;;4.50;2.70;;;22.20;53.20;;;;;;5070355;28;20024;-38
2021/03/30 12:46:37;;;;;;;3.15;2.85;;;22.20;53.40;;;;;;5071125;28;20048;-36
2021/03/30 12:49:03;;;;;;;4.20;2.40;;;22.30;53.50;;;;;;5070597;28;20012;-39
2021/03/30 12:51:29;;;;;;;4.38;2.75;;;22.30;53.10;;;;;;5071682;28;20486;-37
2021/03/30 12:53:57;;;;;;;3.88;2.90;;;22.30;53.30;;;;;;5070836;28;20035;-38
2021/03/30 12:56:22;;;;;;;5.50;2.28;;;22.30;53.50;;;;;;5070776;28;20031;-39
2021/03/30 12:58:48;;;;;;;3.80;2.80;;;22.20;53.60;;;;;;5069474;28;20016;-39
2021/03/30 13:01:14;;;;;;;2.33;2.10;;;22.20;53.60;;;;;;5070936;28;20021;-39
2021/03/30 13:03:39;;;;;;;3.15;2.47;;;22.20;53.70;;;;;;5071770;28;20054;-38
2021/03/30 13:06:05;;;;;;;3.83;2.45;;;22.20;54.00;;;;;;5070252;28;20028;-39
2021/03/30 13:08:30;;;;;;;2.40;2.30;;;22.10;53.80;;;;;;5069281;28;20032;-38